createdAt,value
2022-10-18T00:01:31.348Z,10.20
2022-10-18T00:04:01.590Z,7.60
2022-10-18T00:06:31.819Z,8.50
2022-10-18T00:09:02.030Z,8.10
2022-10-18T00:11:32.359Z,13.20
2022-10-18T00:14:02.996Z,8.70
2022-10-18T00:16:33.259Z,6.80
2022-10-18T00:19:03.477Z,10.90
2022-10-18T00:21:33.953Z,8.90
2022-10-18T00:24:04.877Z,6.70
2022-10-18T00:26:38.297Z,7.00
2022-10-18T00:29:08.480Z,7.80
2022-10-18T00:31:39.707Z,9.10
2022-10-18T00:34:13.884Z,7.90
2022-10-18T00:36:45.361Z,6.60
2022-10-18T00:39:17.878Z,10.30
2022-10-18T00:41:48.864Z,7.30
2022-10-18T00:44:53.821Z,7.60
2022-10-18T00:47:24.071Z,6.60
2022-10-18T00:49:57.258Z,8.60
2022-10-18T00:52:33.792Z,8.20
2022-10-18T00:55:05.154Z,7.70
2022-10-18T00:57:36.304Z,6.70
2022-10-18T01:00:10.222Z,10.10
2022-10-18T01:02:43.097Z,7.60
2022-10-18T01:05:16.189Z,8.00
2022-10-18T01:08:08.928Z,6.90
2022-10-18T01:10:47.784Z,8.30
2022-10-18T01:13:41.489Z,7.40
2022-10-18T01:16:20.769Z,8.40
2022-10-18T01:18:55.972Z,7.80
2022-10-18T01:21:40.302Z,7.20
2022-10-18T01:24:30.082Z,10.90
2022-10-18T01:27:12.602Z,6.60
2022-10-18T01:30:03.997Z,7.50
2022-10-18T01:32:38.507Z,11.30
2022-10-18T01:35:13.693Z,7.00
2022-10-18T01:37:47.584Z,7.00
2022-10-18T01:40:21.772Z,6.40
2022-10-18T01:42:52.991Z,7.80
2022-10-18T01:45:25.154Z,7.90
2022-10-18T01:47:57.133Z,5.90
2022-10-18T01:50:33.396Z,6.50
2022-10-18T01:53:04.392Z,6.40
2022-10-18T01:55:42.012Z,6.90
2022-10-18T01:58:20.644Z,6.70
2022-10-18T02:01:00.180Z,6.90
2022-10-18T02:03:30.704Z,6.20
2022-10-18T02:06:06.278Z,5.30
2022-10-18T02:08:39.521Z,7.10
2022-10-18T02:11:12.354Z,6.00
2022-10-18T02:13:45.953Z,5.60
2022-10-18T02:16:21.191Z,6.10
2022-10-18T02:18:56.235Z,7.40
2022-10-18T02:21:28.831Z,6.70
2022-10-18T02:24:02.025Z,6.90
2022-10-18T02:26:32.411Z,6.80
2022-10-18T02:29:02.803Z,10.50
2022-10-18T02:31:37.074Z,6.30
2022-10-18T02:34:15.071Z,7.10
2022-10-18T02:36:47.557Z,9.40
2022-10-18T02:39:22.327Z,7.60
2022-10-18T02:41:54.173Z,8.00
2022-10-18T02:44:26.150Z,9.40
2022-10-18T02:46:56.725Z,6.20
2022-10-18T02:49:27.138Z,11.00
2022-10-18T02:51:59.722Z,6.40
2022-10-18T02:54:29.912Z,7.60
2022-10-18T02:57:00.267Z,9.20
2022-10-18T02:59:30.482Z,8.60
2022-10-18T03:02:00.728Z,7.80
2022-10-18T03:04:30.955Z,5.60
2022-10-18T03:07:01.185Z,8.10
2022-10-18T03:09:31.433Z,9.50
2022-10-18T03:12:04.395Z,6.00
2022-10-18T03:14:34.660Z,6.20
2022-10-18T03:17:04.910Z,7.50
2022-10-18T03:19:35.423Z,6.70
2022-10-18T03:22:05.967Z,6.00
2022-10-18T03:24:36.217Z,9.80
2022-10-18T03:27:06.597Z,7.20
2022-10-18T03:29:36.839Z,5.20
2022-10-18T03:32:07.385Z,5.60
2022-10-18T03:34:37.637Z,5.90
2022-10-18T03:37:07.879Z,5.10
2022-10-18T03:39:38.146Z,8.70
2022-10-18T03:42:08.374Z,11.10
2022-10-18T03:44:38.604Z,7.60
2022-10-18T03:47:08.815Z,9.90
2022-10-18T03:49:39.037Z,13.60
2022-10-18T03:52:11.914Z,9.80
2022-10-18T03:54:42.171Z,7.00
2022-10-18T03:57:12.410Z,10.60
2022-10-18T03:59:42.667Z,6.80
2022-10-18T04:02:12.894Z,11.70
2022-10-18T04:04:43.128Z,11.50
2022-10-18T04:07:13.346Z,17.40
2022-10-18T04:09:43.567Z,10.00
2022-10-18T04:12:13.783Z,6.50
2022-10-18T04:14:43.967Z,5.70
2022-10-18T04:17:14.257Z,6.70
2022-10-18T04:19:44.578Z,10.20
2022-10-18T04:22:14.839Z,9.00
2022-10-18T04:24:45.099Z,14.90
2022-10-18T04:27:15.322Z,7.20
2022-10-18T04:29:45.526Z,6.00
2022-10-18T04:32:15.853Z,5.10
2022-10-18T04:34:46.103Z,7.60
2022-10-18T04:37:17.290Z,6.70
2022-10-18T04:39:51.228Z,11.70
2022-10-18T04:42:24.241Z,14.10
2022-10-18T04:44:54.468Z,8.00
2022-10-18T04:47:24.722Z,7.30
2022-10-18T04:49:54.957Z,6.80
2022-10-18T04:52:25.292Z,8.70
2022-10-18T04:54:55.523Z,7.80
2022-10-18T04:57:25.813Z,7.40
2022-10-18T04:59:56.102Z,11.70
2022-10-18T05:02:26.600Z,11.10
2022-10-18T05:04:56.815Z,7.00
2022-10-18T05:07:27.267Z,8.90
2022-10-18T05:09:57.453Z,7.30
2022-10-18T05:12:27.675Z,7.20
2022-10-18T05:14:57.932Z,7.10
2022-10-18T05:17:28.156Z,6.70
2022-10-18T05:19:58.459Z,5.90
2022-10-18T05:22:28.924Z,5.80
2022-10-18T05:24:59.205Z,12.60
2022-10-18T05:27:30.422Z,9.60
2022-10-18T05:30:04.566Z,7.80
2022-10-18T05:32:35.971Z,11.10
2022-10-18T05:35:06.962Z,6.90
2022-10-18T05:37:37.221Z,10.10
2022-10-18T05:40:09.160Z,9.40
2022-10-18T05:42:39.441Z,11.50
2022-10-18T05:45:11.202Z,6.90
2022-10-18T05:47:41.430Z,11.60
2022-10-18T05:50:12.231Z,13.90
2022-10-18T05:52:42.469Z,12.60
2022-10-18T05:55:12.936Z,14.80
2022-10-18T05:57:43.185Z,7.10
2022-10-18T06:00:15.382Z,10.00
2022-10-18T06:02:45.719Z,11.30
2022-10-18T06:05:16.020Z,14.70
2022-10-18T06:07:46.247Z,24.60
2022-10-18T06:10:16.555Z,19.90
2022-10-18T06:12:46.797Z,9.80
2022-10-18T06:15:17.248Z,6.20
2022-10-18T06:17:47.481Z,15.60
2022-10-18T06:20:17.879Z,9.00
2022-10-18T06:22:48.129Z,19.00
2022-10-18T06:25:18.355Z,14.70
2022-10-18T06:27:48.559Z,11.00
2022-10-18T06:30:19.001Z,14.00
2022-10-18T06:32:49.239Z,12.60
2022-10-18T06:35:21.887Z,12.90
2022-10-18T06:37:52.132Z,12.30
2022-10-18T06:40:22.382Z,9.90
2022-10-18T06:43:00.303Z,11.30
2022-10-18T06:45:36.199Z,23.20
2022-10-18T06:48:08.021Z,24.80
2022-10-18T06:50:40.790Z,22.50
2022-10-18T06:53:11.134Z,14.00
2022-10-18T06:55:41.341Z,10.80
2022-10-18T06:58:11.562Z,9.80
2022-10-18T07:00:41.799Z,12.40
2022-10-18T07:03:12.034Z,10.40
2022-10-18T07:05:42.733Z,14.40
2022-10-18T07:08:12.958Z,12.60
2022-10-18T07:10:43.232Z,9.70
2022-10-18T07:13:31.487Z,12.50
2022-10-18T07:16:08.664Z,13.20
2022-10-18T07:18:40.713Z,9.50
2022-10-18T07:21:13.298Z,16.10
2022-10-18T07:23:46.212Z,12.10
2022-10-18T07:26:19.290Z,15.90
2022-10-18T07:28:51.418Z,14.10
2022-10-18T07:31:22.028Z,10.70
2022-10-18T07:33:52.565Z,18.40
2022-10-18T07:36:23.088Z,9.90
2022-10-18T07:38:54.081Z,11.00
2022-10-18T07:41:24.355Z,13.70
2022-10-18T07:43:55.264Z,10.40
2022-10-18T07:46:25.530Z,8.00
2022-10-18T07:48:55.776Z,10.60
2022-10-18T07:51:26.329Z,10.30
2022-10-18T07:53:56.559Z,10.00
2022-10-18T07:56:26.906Z,15.30
2022-10-18T07:58:58.382Z,12.00
2022-10-18T08:01:28.764Z,10.00
2022-10-18T08:04:04.684Z,11.40
2022-10-18T08:06:37.688Z,8.60
2022-10-18T08:09:07.947Z,10.80
2022-10-18T08:11:38.218Z,9.20
2022-10-18T08:14:08.465Z,9.30
2022-10-18T08:16:38.751Z,12.30
2022-10-18T08:19:09.302Z,10.60
2022-10-18T08:21:39.554Z,8.80
2022-10-18T08:24:09.772Z,7.20
2022-10-18T08:26:40.038Z,9.30
2022-10-18T08:29:21.889Z,10.70
2022-10-18T08:31:54.330Z,11.20
2022-10-18T08:34:24.807Z,9.60
2022-10-18T08:36:55.115Z,11.50
2022-10-18T08:39:25.423Z,9.60
2022-10-18T08:42:12.401Z,14.50
2022-10-18T08:44:48.046Z,7.20
2022-10-18T08:47:20.669Z,10.30
2022-10-18T08:49:55.281Z,8.00
2022-10-18T08:52:34.191Z,15.80
2022-10-18T08:55:11.219Z,11.40
2022-10-18T08:57:41.425Z,9.10
2022-10-18T09:00:18.180Z,9.70
2022-10-18T09:05:33.680Z,9.20
2022-10-18T09:08:42.494Z,8.60
2022-10-18T09:11:27.900Z,9.60
2022-10-18T09:14:15.420Z,14.60
2022-10-18T09:16:51.642Z,11.60
2022-10-18T09:19:36.431Z,6.70
2022-10-18T09:22:15.235Z,8.50
2022-10-18T09:24:55.572Z,9.20
2022-10-18T09:27:38.821Z,7.60
2022-10-18T09:30:20.303Z,10.00
2022-10-18T09:33:00.482Z,9.10
2022-10-18T09:35:39.577Z,7.40
2022-10-18T09:38:14.423Z,7.90
2022-10-18T09:40:52.948Z,12.00
2022-10-18T09:43:27.452Z,12.50
2022-10-18T09:45:58.592Z,10.30
2022-10-18T09:48:32.253Z,10.50
2022-10-18T09:51:09.013Z,8.20
2022-10-18T09:56:18.532Z,10.20
2022-10-18T10:01:22.090Z,14.70
2022-10-18T10:03:53.010Z,16.00
2022-10-18T10:06:31.589Z,8.50
2022-10-18T10:09:06.870Z,10.80
2022-10-18T10:11:40.285Z,9.70
2022-10-18T10:14:17.457Z,9.00
2022-10-18T10:16:51.291Z,9.90
2022-10-18T10:19:28.272Z,12.00
2022-10-18T10:22:03.234Z,11.10
2022-10-18T10:24:41.550Z,18.60
2022-10-18T10:27:20.844Z,10.40
2022-10-18T10:29:56.518Z,12.00
2022-10-18T10:32:30.489Z,8.20
2022-10-18T10:35:00.882Z,8.90
2022-10-18T10:37:36.524Z,10.50
2022-10-18T10:40:27.788Z,8.50
2022-10-18T10:43:18.314Z,7.70
2022-10-18T10:46:02.662Z,7.10
2022-10-18T10:48:41.286Z,11.10
2022-10-18T10:51:13.150Z,7.50
2022-10-18T10:53:52.301Z,10.60
2022-10-18T10:56:27.678Z,10.30
2022-10-18T10:59:02.432Z,8.00
2022-10-18T11:01:34.838Z,10.30
2022-10-18T11:04:20.827Z,9.00
2022-10-18T11:07:03.562Z,11.30
2022-10-18T11:09:53.843Z,8.20
2022-10-18T11:12:29.762Z,8.20
2022-10-18T11:15:10.105Z,10.70
2022-10-18T11:17:47.395Z,8.60
2022-10-18T11:20:25.762Z,10.10
2022-10-18T11:23:02.859Z,12.30
2022-10-18T11:25:47.628Z,7.60
2022-10-18T11:28:27.656Z,7.10
2022-10-18T11:31:13.079Z,7.40
2022-10-18T11:34:08.625Z,19.30
2022-10-18T11:37:02.335Z,9.00
2022-10-18T11:39:49.494Z,11.90
2022-10-18T11:42:26.811Z,8.50
2022-10-18T11:45:07.497Z,8.70
2022-10-18T11:47:52.203Z,10.80
2022-10-18T11:50:36.013Z,9.10
2022-10-18T11:53:20.785Z,8.70
2022-10-18T11:56:03.770Z,7.90
2022-10-18T11:58:47.033Z,9.10
2022-10-18T12:01:28.720Z,8.10
2022-10-18T12:04:08.999Z,11.40
2022-10-18T12:06:41.059Z,7.70
2022-10-18T12:09:21.069Z,12.30
2022-10-18T12:11:57.924Z,14.00
2022-10-18T12:14:31.839Z,9.70
2022-10-18T12:17:39.829Z,7.70
2022-10-18T12:20:00.989Z,10.50
2022-10-18T12:22:37.462Z,8.90
2022-10-18T12:25:13.941Z,15.40
2022-10-18T12:27:54.254Z,10.20
2022-10-18T12:30:33.013Z,12.30
2022-10-18T12:33:27.353Z,7.70
2022-10-18T12:36:07.531Z,10.90
2022-10-18T12:38:41.242Z,11.70
2022-10-18T12:41:21.477Z,12.10
2022-10-18T12:44:05.329Z,13.40
2022-10-18T12:46:50.738Z,12.60
2022-10-18T12:49:27.507Z,12.60
2022-10-18T12:52:00.294Z,14.40
2022-10-18T12:54:33.014Z,17.00
2022-10-18T12:57:04.487Z,9.20
2022-10-18T12:59:51.834Z,9.50
2022-10-18T13:02:32.906Z,9.10
2022-10-18T13:05:40.962Z,10.50
2022-10-18T13:08:41.960Z,10.10
2022-10-18T13:11:30.941Z,8.10
2022-10-18T13:14:35.552Z,8.40
2022-10-18T13:17:15.001Z,10.70
2022-10-18T13:20:20.452Z,10.00
2022-10-18T13:22:59.314Z,10.70
2022-10-18T13:25:37.132Z,8.50
2022-10-18T13:28:23.572Z,6.70
2022-10-18T13:30:58.777Z,8.30
2022-10-18T13:33:34.285Z,7.70
2022-10-18T13:36:06.572Z,8.00
2022-10-18T13:38:47.224Z,7.40
2022-10-18T13:41:20.108Z,17.90
2022-10-18T13:44:37.362Z,7.30
2022-10-18T13:47:15.589Z,6.90
2022-10-18T13:49:59.457Z,12.30
2022-10-18T13:52:45.289Z,7.70
2022-10-18T13:55:35.863Z,13.90
2022-10-18T13:58:15.209Z,7.30
2022-10-18T14:01:00.068Z,10.10
2022-10-18T14:03:57.479Z,8.30
2022-10-18T14:06:34.466Z,6.50
2022-10-18T14:12:02.444Z,10.30
2022-10-18T14:17:18.054Z,13.90
2022-10-18T14:19:53.355Z,17.60
2022-10-18T14:22:26.400Z,16.10
2022-10-18T14:24:59.966Z,11.00
2022-10-18T14:27:32.585Z,8.60
2022-10-18T14:30:18.476Z,7.30
2022-10-18T14:32:50.598Z,7.50
2022-10-18T14:35:38.947Z,8.30
2022-10-18T14:38:16.223Z,7.70
2022-10-18T14:40:46.511Z,7.30
2022-10-18T14:43:20.340Z,6.00
2022-10-18T14:45:50.544Z,6.80
2022-10-18T14:48:24.324Z,7.50
2022-10-18T14:51:00.460Z,6.50
2022-10-18T14:53:35.984Z,4.10
2022-10-18T14:56:08.242Z,6.30
2022-10-18T14:58:42.477Z,3.40
2022-10-18T15:01:18.946Z,2.40
2022-10-18T15:03:50.033Z,1.60
2022-10-18T15:06:21.304Z,2.70
2022-10-18T15:08:55.043Z,2.80
2022-10-18T15:11:26.183Z,1.80
2022-10-18T15:13:58.826Z,2.40
2022-10-18T15:16:31.845Z,1.90
2022-10-18T15:19:08.265Z,2.00
2022-10-18T15:21:38.776Z,2.40
2022-10-18T15:24:32.473Z,2.30
2022-10-18T15:27:11.476Z,1.80
2022-10-18T15:29:44.020Z,2.30
2022-10-18T15:32:20.732Z,2.60
2022-10-18T15:34:51.075Z,2.10
2022-10-18T15:37:32.083Z,1.20
2022-10-18T15:40:32.557Z,1.50
2022-10-18T15:43:05.918Z,1.70
2022-10-18T15:45:39.633Z,3.40
2022-10-18T15:48:32.528Z,2.50
2022-10-18T15:51:05.319Z,2.90
2022-10-18T15:53:42.531Z,2.40
2022-10-18T15:56:27.703Z,4.90
2022-10-18T15:58:59.262Z,5.80
2022-10-18T16:01:43.849Z,4.20
2022-10-18T16:04:26.463Z,1.90
2022-10-18T16:06:57.823Z,2.60
2022-10-18T16:09:29.574Z,2.10
2022-10-18T16:11:59.806Z,2.10
2022-10-18T16:14:39.504Z,1.20
2022-10-18T16:17:16.665Z,2.40
2022-10-18T16:19:46.894Z,1.60
2022-10-18T16:22:17.515Z,1.60
2022-10-18T16:24:48.013Z,1.40
2022-10-18T16:27:18.292Z,1.80
2022-10-18T16:29:48.631Z,2.40
2022-10-18T16:32:18.895Z,4.10
2022-10-18T16:34:49.569Z,1.90
2022-10-18T16:37:19.875Z,1.50
2022-10-18T16:39:50.175Z,2.40
2022-10-18T16:42:20.505Z,1.30
2022-10-18T16:44:50.835Z,1.40
2022-10-18T16:47:21.172Z,1.00
2022-10-18T16:49:51.524Z,1.90
2022-10-18T16:52:21.861Z,1.20
2022-10-18T16:54:52.215Z,4.00
2022-10-18T16:57:22.606Z,4.80
2022-10-18T16:59:52.962Z,1.50
2022-10-18T17:02:23.303Z,1.60
2022-10-18T17:04:53.648Z,1.80
2022-10-18T17:07:26.856Z,1.60
2022-10-18T17:09:57.441Z,2.70
2022-10-18T17:12:27.806Z,2.20
2022-10-18T17:14:58.142Z,2.00
2022-10-18T17:17:28.578Z,2.00
2022-10-18T17:19:58.943Z,2.10
2022-10-18T17:22:29.310Z,2.60
2022-10-18T17:24:59.567Z,2.30
2022-10-18T17:27:32.323Z,4.40
2022-10-18T17:30:03.376Z,2.80
2022-10-18T17:32:33.735Z,2.90
2022-10-18T17:35:04.449Z,3.50
2022-10-18T17:37:35.113Z,2.60
2022-10-18T17:40:06.813Z,2.80
2022-10-18T17:42:37.069Z,4.10
2022-10-18T17:45:09.241Z,3.20
2022-10-18T17:47:39.565Z,3.60
2022-10-18T17:50:10.653Z,3.40
2022-10-18T17:52:44.757Z,3.40
2022-10-18T17:55:16.522Z,3.70
2022-10-18T17:57:46.902Z,3.70
2022-10-18T18:00:18.039Z,6.70
2022-10-18T18:02:48.459Z,4.00
2022-10-18T18:05:19.048Z,4.00
2022-10-18T18:07:49.330Z,3.80
2022-10-18T18:10:20.167Z,4.50
2022-10-18T18:12:50.475Z,4.30
2022-10-18T18:15:22.406Z,4.70
2022-10-18T18:17:57.154Z,5.30
2022-10-18T18:20:28.678Z,5.20
2022-10-18T18:22:59.181Z,4.60
2022-10-18T18:25:29.441Z,4.30
2022-10-18T18:28:03.845Z,5.50
2022-10-18T18:30:42.300Z,4.40
2022-10-18T18:33:12.694Z,8.10
2022-10-18T18:35:43.038Z,4.90
2022-10-18T18:38:13.340Z,5.60
2022-10-18T18:40:43.776Z,4.60
2022-10-18T18:43:28.915Z,5.80
2022-10-18T18:45:59.315Z,4.00
2022-10-18T18:48:29.966Z,4.60
2022-10-18T18:51:00.310Z,4.00
2022-10-18T18:53:30.882Z,4.10
2022-10-18T18:56:06.155Z,4.80
2022-10-18T18:58:37.437Z,5.40
2022-10-18T19:01:12.143Z,5.00
2022-10-18T19:03:43.119Z,5.70
2022-10-18T19:06:16.540Z,7.10
2022-10-18T19:08:47.787Z,9.00
2022-10-18T19:11:20.745Z,6.80
2022-10-18T19:13:51.477Z,5.30
2022-10-18T19:16:27.387Z,7.50
2022-10-18T19:19:00.192Z,6.70
2022-10-18T19:21:32.546Z,4.90
2022-10-18T19:24:03.411Z,5.20
2022-10-18T19:26:37.100Z,4.80
2022-10-18T19:29:10.911Z,4.90
2022-10-18T19:31:41.585Z,5.10
2022-10-18T19:34:13.901Z,4.00
2022-10-18T19:36:46.754Z,4.30
2022-10-18T19:39:20.428Z,4.40
2022-10-18T19:41:51.879Z,4.80
2022-10-18T19:44:22.889Z,4.40
2022-10-18T19:46:53.291Z,6.10
2022-10-18T19:49:24.257Z,5.90
2022-10-18T19:51:54.821Z,5.40
2022-10-18T19:54:25.742Z,7.20
2022-10-18T19:56:55.982Z,9.20
2022-10-18T19:59:26.388Z,6.10
2022-10-18T20:01:56.931Z,5.90
2022-10-18T20:04:27.456Z,6.10
2022-10-18T20:06:57.714Z,8.50
2022-10-18T20:09:28.059Z,7.90
2022-10-18T20:11:58.281Z,7.00
2022-10-18T20:14:28.660Z,10.90
2022-10-18T20:16:58.980Z,7.20
2022-10-18T20:19:29.251Z,13.10
2022-10-18T20:21:59.482Z,8.50
2022-10-18T20:24:31.931Z,7.20
2022-10-18T20:27:02.461Z,9.30
2022-10-18T20:29:33.288Z,8.50
2022-10-18T20:32:03.490Z,8.00
2022-10-18T20:34:34.038Z,12.50
2022-10-18T20:37:04.244Z,8.40
2022-10-18T20:39:37.165Z,9.20
2022-10-18T20:42:07.756Z,9.20
2022-10-18T20:44:40.902Z,10.70
2022-10-18T20:47:11.204Z,7.50
2022-10-18T20:49:41.456Z,8.10
2022-10-18T20:52:11.731Z,7.30
2022-10-18T20:54:42.011Z,18.80
2022-10-18T20:57:12.299Z,9.70
2022-10-18T20:59:42.523Z,10.10
2022-10-18T21:02:14.234Z,9.60
2022-10-18T21:04:44.441Z,10.50
2022-10-18T21:07:14.750Z,7.20
2022-10-18T21:09:44.940Z,9.80
2022-10-18T21:12:15.258Z,8.60
2022-10-18T21:14:45.444Z,7.60
2022-10-18T21:17:15.680Z,13.80
2022-10-18T21:19:45.922Z,11.10
2022-10-18T21:22:16.377Z,10.30
2022-10-18T21:24:46.646Z,10.60
2022-10-18T21:27:16.886Z,9.40
2022-10-18T21:29:47.107Z,9.60
2022-10-18T21:32:17.445Z,9.80
2022-10-18T21:34:47.699Z,9.60
2022-10-18T21:37:17.903Z,10.40
2022-10-18T21:39:48.113Z,8.80
2022-10-18T21:42:18.629Z,8.20
2022-10-18T21:44:49.085Z,7.60
2022-10-18T21:47:20.389Z,11.30
2022-10-18T21:49:50.873Z,9.30
2022-10-18T21:52:21.444Z,11.10
2022-10-18T21:54:51.794Z,10.80
2022-10-18T21:57:22.056Z,9.80
2022-10-18T21:59:52.844Z,9.00
2022-10-18T22:02:23.079Z,6.80
2022-10-18T22:04:53.477Z,8.80
2022-10-18T22:07:26.050Z,6.50
2022-10-18T22:09:56.280Z,7.10
2022-10-18T22:12:26.551Z,5.90
2022-10-18T22:14:56.753Z,6.40
2022-10-18T22:17:27.097Z,7.70
2022-10-18T22:19:57.315Z,8.40
2022-10-18T22:22:27.533Z,6.60
2022-10-18T22:24:58.072Z,6.40
2022-10-18T22:27:30.393Z,7.50
2022-10-18T22:30:00.961Z,8.30
2022-10-18T22:32:31.169Z,8.80
2022-10-18T22:35:01.481Z,8.90
2022-10-18T22:37:32.205Z,7.70
2022-10-18T22:40:02.827Z,7.40
2022-10-18T22:45:09.942Z,11.20
2022-10-18T22:47:40.142Z,7.00
2022-10-18T22:50:11.323Z,6.30
2022-10-18T22:52:41.630Z,5.60
2022-10-18T22:55:12.196Z,5.90
2022-10-18T22:57:42.426Z,7.70
2022-10-18T23:00:14.812Z,6.80
2022-10-18T23:02:45.019Z,9.10
2022-10-18T23:05:15.269Z,7.60
2022-10-18T23:07:50.091Z,7.50
2022-10-18T23:10:20.376Z,4.80
2022-10-18T23:12:50.633Z,6.80
2022-10-18T23:15:20.855Z,8.10
2022-10-18T23:17:54.509Z,7.20
2022-10-18T23:20:25.112Z,7.10
2022-10-18T23:22:55.609Z,8.30
2022-10-18T23:25:27.093Z,8.80
2022-10-18T23:27:57.552Z,10.50
2022-10-18T23:30:27.761Z,6.00
2022-10-18T23:32:58.016Z,8.50
2022-10-18T23:35:28.819Z,10.60
2022-10-18T23:37:59.091Z,7.80
2022-10-18T23:40:29.285Z,7.40
2022-10-18T23:42:59.523Z,8.40
2022-10-18T23:45:29.750Z,7.90
2022-10-18T23:47:59.945Z,7.40
2022-10-18T23:50:30.178Z,5.80
2022-10-18T23:53:00.424Z,6.10
2022-10-18T23:55:30.621Z,6.50
2022-10-18T23:58:01.060Z,7.20
